PWSweather.com
Personal Weather Stations
Station Observations
JOE4SPEED
Jupiter, Fl, Jupiter, FL 33458

Jupiter, FlJupiter, FL 33458

Lat: 26.9373, Lon: -80.1101

Elevation: 12

Station Type: Davis VP 2

http://www.joe4speed.com/wxindex.php

High Low Average
Temperature 72.8°F22.7°F 67.4°F19.7°F 69.4°F20.8°F
Dew Point 61.4°F16.3°F 59.5°F15.3°F 60.2°F15.7°F
Winds 3.6 mph SE5.8 mph SE Calm Calm 1.7 mph 2.7 mph
Wind Gusts 8.0 mph12.9 mph -- 3.2 mph5.1 mph
Humidity 77% 67% 73%
Pressure 30.11 in1019.60 in 30.07 in1018.30 in -
Precipitation 0.00 in0.00 in - -
Hour Temp Dew Point Humidity Winds Wind Gusts Pressure Precip Precip Rate Daily Precip Total
12:00 AM 59.9°F15.5°C 55.4°F13.0°C 85% Calm Calm -- 30.18 in1022.0 mb - 0.00 in0.0 mm 0.00 in0.0 mm
12:10 AM 59.9°F15.5°C 55.4°F13.0°C 85% Calm Calm -- 30.18 in1022.0 mb - 0.00 in0.0 mm 0.00 in0.0 mm
12:20 AM 59.9°F15.5°C 55.7°F13.2°C 86% Calm Calm -- 30.18 in1022.0 mb - 0.00 in0.0 mm 0.00 in0.0 mm
12:30 AM 59.8°F15.4°C 55.6°F13.1°C 86% Calm Calm -- 30.18 in1022.0 mb - 0.00 in0.0 mm 0.00 in0.0 mm
12:40 AM 59.6°F15.3°C 55.4°F13.0°C 86% Calm Calm -- 30.17 in1021.7 mb - 0.00 in0.0 mm 0.00 in0.0 mm
12:50 AM 59.4°F15.2°C 55.2°F12.9°C 86% Calm Calm -- 30.17 in1021.7 mb - 0.00 in0.0 mm 0.00 in0.0 mm
01:00 AM 59.1°F15.1°C 55.2°F12.9°C 87% Calm Calm -- 30.17 in1021.7 mb - 0.00 in0.0 mm 0.00 in0.0 mm
01:10 AM 59.0°F15.0°C 55.1°F12.8°C 87% Calm Calm -- 30.16 in1021.3 mb - 0.00 in0.0 mm 0.00 in0.0 mm
01:20 AM 58.7°F14.8°C 54.8°F12.7°C 87% Calm Calm -- 30.16 in1021.3 mb - 0.00 in0.0 mm 0.00 in0.0 mm
01:30 AM 58.5°F14.7°C 54.6°F12.6°C 87% Calm Calm -- 30.15 in1021.0 mb - 0.00 in0.0 mm 0.00 in0.0 mm
01:40 AM 58.4°F14.7°C 54.5°F12.5°C 87% Calm Calm -- 30.15 in1021.0 mb - 0.00 in0.0 mm 0.00 in0.0 mm
01:50 AM 58.3°F14.6°C 54.4°F12.4°C 87% Calm Calm -- 30.15 in1021.0 mb - 0.00 in0.0 mm 0.00 in0.0 mm
02:00 AM 58.3°F14.6°C 54.8°F12.7°C 88% Calm Calm -- 30.15 in1021.0 mb - 0.00 in0.0 mm 0.00 in0.0 mm
02:10 AM 58.1°F14.5°C 54.6°F12.6°C 88% Calm Calm -- 30.15 in1021.0 mb - 0.00 in0.0 mm 0.00 in0.0 mm
02:20 AM 58.0°F14.4°C 54.5°F12.5°C 88% Calm Calm -- 30.14 in1020.7 mb - 0.00 in0.0 mm 0.00 in0.0 mm
02:30 AM 58.0°F14.4°C 54.5°F12.5°C 88% Calm Calm -- 30.14 in1020.7 mb - 0.00 in0.0 mm 0.00 in0.0 mm
02:40 AM 57.9°F14.4°C 54.4°F12.4°C 88% Calm Calm -- 30.14 in1020.7 mb - 0.00 in0.0 mm 0.00 in0.0 mm
02:50 AM 57.8°F14.3°C 54.3°F12.4°C 88% Calm Calm -- 30.14 in1020.7 mb - 0.00 in0.0 mm 0.00 in0.0 mm
03:00 AM 57.6°F14.2°C 54.1°F12.3°C 88% Calm Calm -- 30.13 in1020.3 mb - 0.00 in0.0 mm 0.00 in0.0 mm
03:10 AM 57.4°F14.1°C 53.9°F12.2°C 88% Calm Calm -- 30.12 in1020.0 mb - 0.00 in0.0 mm 0.00 in0.0 mm
03:20 AM 57.2°F14.0°C 53.7°F12.1°C 88% Calm Calm -- 30.12 in1020.0 mb - 0.00 in0.0 mm 0.00 in0.0 mm
03:30 AM 56.9°F13.8°C 53.4°F11.9°C 88% Calm Calm -- 30.12 in1020.0 mb - 0.00 in0.0 mm 0.00 in0.0 mm
03:40 AM 56.7°F13.7°C 53.2°F11.8°C 88% Calm Calm -- 30.11 in1019.6 mb - 0.00 in0.0 mm 0.00 in0.0 mm
03:50 AM 56.6°F13.7°C 53.4°F11.9°C 89% Calm Calm -- 30.11 in1019.6 mb - 0.00 in0.0 mm 0.00 in0.0 mm
04:00 AM 56.4°F13.6°C 52.9°F11.6°C 88% Calm Calm -- 30.11 in1019.6 mb - 0.00 in0.0 mm 0.00 in0.0 mm
04:10 AM 56.4°F13.6°C 53.2°F11.8°C 89% Calm Calm -- 30.11 in1019.6 mb - 0.00 in0.0 mm 0.00 in0.0 mm
04:20 AM 56.3°F13.5°C 53.1°F11.7°C 89% Calm Calm -- 30.11 in1019.6 mb - 0.00 in0.0 mm 0.00 in0.0 mm
04:30 AM 56.4°F13.6°C 53.2°F11.8°C 89% Calm Calm -- 30.11 in1019.6 mb - 0.00 in0.0 mm 0.00 in0.0 mm
04:40 AM 56.3°F13.5°C 53.1°F11.7°C 89% Calm Calm -- 30.11 in1019.6 mb - 0.00 in0.0 mm 0.00 in0.0 mm
04:50 AM 56.2°F13.4°C 53.0°F11.7°C 89% 0.8 mph WNW1.3 kmh WNW 1.0 mph1.6 kmh 30.12 in1020.0 mb - 0.00 in0.0 mm 0.00 in0.0 mm
05:00 AM 56.2°F13.4°C 53.0°F11.7°C 89% 0.4 mph WNW0.6 kmh WNW 1.0 mph1.6 kmh 30.11 in1019.6 mb - 0.00 in0.0 mm 0.00 in0.0 mm
05:10 AM 56.5°F13.6°C 53.6°F12.0°C 90% 0.2 mph WNW0.3 kmh WNW 2.0 mph3.2 kmh 30.11 in1019.6 mb - 0.00 in0.0 mm 0.00 in0.0 mm
05:20 AM 56.6°F13.7°C 53.7°F12.1°C 90% Calm Calm -- 30.12 in1020.0 mb - 0.00 in0.0 mm 0.00 in0.0 mm
05:30 AM 56.7°F13.7°C 53.8°F12.1°C 90% 0.9 mph WNW1.4 kmh WNW 1.0 mph1.6 kmh 30.12 in1020.0 mb - 0.00 in0.0 mm 0.00 in0.0 mm
05:40 AM 56.8°F13.8°C 53.6°F12.0°C 89% 1.5 mph NW2.4 kmh NW 4.0 mph6.4 kmh 30.12 in1020.0 mb - 0.00 in0.0 mm 0.00 in0.0 mm
05:50 AM 57.0°F13.9°C 54.1°F12.3°C 90% 1.2 mph NW1.9 kmh NW 2.0 mph3.2 kmh 30.12 in1020.0 mb - 0.00 in0.0 mm 0.00 in0.0 mm
06:00 AM 57.2°F14.0°C 54.3°F12.4°C 90% 1.4 mph WNW2.3 kmh WNW 4.0 mph6.4 kmh 30.13 in1020.3 mb - 0.00 in0.0 mm 0.00 in0.0 mm
06:10 AM 57.2°F14.0°C 54.0°F12.2°C 89% 1.3 mph NW2.1 kmh NW 2.0 mph3.2 kmh 30.13 in1020.3 mb - 0.00 in0.0 mm 0.00 in0.0 mm
06:20 AM 57.1°F13.9°C 53.9°F12.2°C 89% 1.8 mph NW2.9 kmh NW 4.0 mph6.4 kmh 30.13 in1020.3 mb - 0.00 in0.0 mm 0.00 in0.0 mm
06:30 AM 57.0°F13.9°C 53.8°F12.1°C 89% 0.7 mph NW1.1 kmh NW 2.0 mph3.2 kmh 30.13 in1020.3 mb - 0.00 in0.0 mm 0.00 in0.0 mm
06:40 AM 56.9°F13.8°C 53.7°F12.1°C 89% 1.9 mph NW3.1 kmh NW 5.0 mph8.0 kmh 30.14 in1020.7 mb - 0.00 in0.0 mm 0.00 in0.0 mm
06:50 AM 56.8°F13.8°C 53.3°F11.8°C 88% 0.7 mph NW1.1 kmh NW 5.0 mph8.0 kmh 30.14 in1020.7 mb - 0.00 in0.0 mm 0.00 in0.0 mm
07:00 AM 56.8°F13.8°C 53.3°F11.8°C 88% 1.5 mph NW2.4 kmh NW 2.0 mph3.2 kmh 30.14 in1020.7 mb - 0.00 in0.0 mm 0.00 in0.0 mm
07:10 AM 56.8°F13.8°C 53.0°F11.7°C 87% 0.1 mph NW0.2 kmh NW -- 30.14 in1020.7 mb - 0.00 in0.0 mm 0.00 in0.0 mm
07:20 AM 56.8°F13.8°C 53.0°F11.7°C 87% 0.2 mph NW0.3 kmh NW 1.0 mph1.6 kmh 30.15 in1021.0 mb - 0.00 in0.0 mm 0.00 in0.0 mm
07:30 AM 56.8°F13.8°C 53.0°F11.7°C 87% 0.5 mph NW0.8 kmh NW 4.0 mph6.4 kmh 30.15 in1021.0 mb - 0.00 in0.0 mm 0.00 in0.0 mm
07:40 AM 57.0°F13.9°C 53.2°F11.8°C 87% 0.5 mph NW0.8 kmh NW 2.0 mph3.2 kmh 30.15 in1021.0 mb - 0.00 in0.0 mm 0.00 in0.0 mm
07:50 AM 57.3°F14.1°C 53.5°F11.9°C 87% 1.2 mph NW1.9 kmh NW 2.0 mph3.2 kmh 30.15 in1021.0 mb - 0.00 in0.0 mm 0.00 in0.0 mm
08:00 AM 57.7°F14.3°C 53.9°F12.2°C 87% 2.2 mph NW3.5 kmh NW 4.0 mph6.4 kmh 30.15 in1021.0 mb - 0.00 in0.0 mm 0.00 in0.0 mm
08:10 AM 58.4°F14.7°C 54.6°F12.6°C 87% 2.2 mph NW3.5 kmh NW 4.0 mph6.4 kmh 30.16 in1021.3 mb - 0.00 in0.0 mm 0.00 in0.0 mm
08:20 AM 59.4°F15.2°C 55.3°F12.9°C 86% 2.0 mph WNW3.2 kmh WNW 4.0 mph6.4 kmh 30.16 in1021.3 mb - 0.00 in0.0 mm 0.00 in0.0 mm
08:30 AM 60.6°F15.9°C 56.4°F13.6°C 86% 2.0 mph NW3.2 kmh NW 4.0 mph6.4 kmh 30.16 in1021.3 mb - 0.00 in0.0 mm 0.00 in0.0 mm
08:40 AM 62.1°F16.7°C 57.6°F14.2°C 85% 1.7 mph WNW2.7 kmh WNW 4.0 mph6.4 kmh 30.16 in1021.3 mb - 0.00 in0.0 mm 0.00 in0.0 mm
08:50 AM 63.9°F17.7°C 59.0°F15.0°C 84% 3.2 mph NW5.1 kmh NW 5.0 mph8.0 kmh 30.16 in1021.3 mb - 0.00 in0.0 mm 0.00 in0.0 mm
09:00 AM 65.8°F18.8°C 60.2°F15.7°C 82% 2.4 mph NW3.9 kmh NW 7.0 mph11.3 kmh 30.17 in1021.7 mb - 0.00 in0.0 mm 0.00 in0.0 mm
09:10 AM 67.6°F19.8°C 61.2°F16.2°C 80% 2.3 mph NW3.7 kmh NW 2.0 mph3.2 kmh 30.17 in1021.7 mb - 0.00 in0.0 mm 0.00 in0.0 mm
09:20 AM 69.1°F20.6°C 61.2°F16.2°C 76% 4.7 mph NW7.6 kmh NW 7.0 mph11.3 kmh 30.17 in1021.7 mb - 0.00 in0.0 mm 0.00 in0.0 mm
09:30 AM 70.4°F21.3°C 61.7°F16.5°C 74% 3.2 mph NW5.1 kmh NW 5.0 mph8.0 kmh 30.17 in1021.7 mb - 0.00 in0.0 mm 0.00 in0.0 mm
09:40 AM 71.3°F21.8°C 61.0°F16.1°C 70% 5.1 mph NNW8.2 kmh NNW 11.0 mph17.7 kmh 30.17 in1021.7 mb - 0.00 in0.0 mm 0.00 in0.0 mm
09:50 AM 72.1°F22.3°C 61.4°F16.3°C 69% 6.4 mph NW10.3 kmh NW 9.0 mph14.5 kmh 30.17 in1021.7 mb - 0.00 in0.0 mm 0.00 in0.0 mm
10:00 AM 73.5°F23.1°C 61.4°F16.3°C 66% 5.6 mph NW9.0 kmh NW 10.0 mph16.1 kmh 30.17 in1021.7 mb - 0.00 in0.0 mm 0.00 in0.0 mm
10:10 AM 74.1°F23.4°C 61.6°F16.4°C 65% 6.5 mph NW10.5 kmh NW 9.0 mph14.5 kmh 30.17 in1021.7 mb - 0.00 in0.0 mm 0.00 in0.0 mm
10:20 AM 74.4°F23.6°C 61.9°F16.6°C 65% 5.2 mph N8.4 kmh N 6.0 mph9.7 kmh 30.17 in1021.7 mb - 0.00 in0.0 mm 0.00 in0.0 mm
10:30 AM 75.3°F24.1°C 62.3°F16.8°C 64% 4.9 mph NW7.9 kmh NW 6.0 mph9.7 kmh 30.17 in1021.7 mb - 0.00 in0.0 mm 0.00 in0.0 mm
10:40 AM 75.9°F24.4°C 62.4°F16.9°C 63% 4.3 mph N6.9 kmh N 8.0 mph12.9 kmh 30.18 in1022.0 mb - 0.00 in0.0 mm 0.00 in0.0 mm
10:50 AM 76.7°F24.8°C 62.2°F16.8°C 61% 4.6 mph NNW7.4 kmh NNW 7.0 mph11.3 kmh 30.17 in1021.7 mb - 0.00 in0.0 mm 0.00 in0.0 mm
11:00 AM 77.0°F25.0°C 63.4°F17.4°C 63% 5.4 mph NW8.7 kmh NW 7.0 mph11.3 kmh 30.17 in1021.7 mb - 0.00 in0.0 mm 0.00 in0.0 mm
11:10 AM 77.1°F25.1°C 63.1°F17.3°C 62% 5.7 mph NE9.2 kmh NE 9.0 mph14.5 kmh 30.17 in1021.7 mb - 0.00 in0.0 mm 0.00 in0.0 mm
11:20 AM 76.7°F24.8°C 62.7°F17.1°C 62% 6.3 mph NNW10.1 kmh NNW 8.0 mph12.9 kmh 30.17 in1021.7 mb - 0.00 in0.0 mm 0.00 in0.0 mm
11:30 AM 76.7°F24.8°C 62.7°F17.1°C 62% 3.9 mph NE6.3 kmh NE 6.0 mph9.7 kmh 30.17 in1021.7 mb - 0.00 in0.0 mm 0.00 in0.0 mm
11:40 AM 76.3°F24.6°C 62.8°F17.1°C 63% 4.8 mph NNE7.7 kmh NNE 6.0 mph9.7 kmh 30.17 in1021.7 mb - 0.00 in0.0 mm 0.00 in0.0 mm
11:50 AM 77.4°F25.2°C 63.3°F17.4°C 62% 3.1 mph NNE5.0 kmh NNE 5.0 mph8.0 kmh 30.16 in1021.3 mb - 0.00 in0.0 mm 0.00 in0.0 mm
12:00 PM 77.5°F25.3°C 63.9°F17.7°C 63% 2.7 mph NE4.3 kmh NE 5.0 mph8.0 kmh 30.16 in1021.3 mb - 0.00 in0.0 mm 0.00 in0.0 mm
12:10 PM 77.4°F25.2°C 63.3°F17.4°C 62% 4.7 mph E7.6 kmh E 9.0 mph14.5 kmh 30.16 in1021.3 mb - 0.00 in0.0 mm 0.00 in0.0 mm
12:20 PM 77.5°F25.3°C 63.5°F17.5°C 62% 3.8 mph E6.1 kmh E 4.0 mph6.4 kmh 30.16 in1021.3 mb - 0.00 in0.0 mm 0.00 in0.0 mm
12:30 PM 77.9°F25.5°C 64.3°F17.9°C 63% 4.0 mph E6.4 kmh E 6.0 mph9.7 kmh 30.16 in1021.3 mb - 0.00 in0.0 mm 0.00 in0.0 mm
12:40 PM 78.1°F25.6°C 64.5°F18.1°C 63% 4.5 mph NNE7.2 kmh NNE 9.0 mph14.5 kmh 30.16 in1021.3 mb - 0.00 in0.0 mm 0.00 in0.0 mm
12:50 PM 77.9°F25.5°C 63.9°F17.7°C 62% 3.5 mph NE5.6 kmh NE 9.0 mph14.5 kmh 30.15 in1021.0 mb - 0.00 in0.0 mm 0.00 in0.0 mm
01:00 PM 78.0°F25.6°C 63.9°F17.7°C 62% 4.2 mph N6.8 kmh N 7.0 mph11.3 kmh 30.15 in1021.0 mb - 0.00 in0.0 mm 0.00 in0.0 mm
01:10 PM 78.0°F25.6°C 63.9°F17.7°C 62% 5.1 mph ENE8.2 kmh ENE 6.0 mph9.7 kmh 30.15 in1021.0 mb - 0.00 in0.0 mm 0.00 in0.0 mm
01:20 PM 77.6°F25.3°C 64.5°F18.1°C 64% 3.9 mph ESE6.3 kmh ESE 5.0 mph8.0 kmh 30.15 in1021.0 mb - 0.00 in0.0 mm 0.00 in0.0 mm
01:30 PM 77.7°F25.4°C 64.6°F18.1°C 64% 3.7 mph N6.0 kmh N 5.0 mph8.0 kmh 30.14 in1020.7 mb - 0.00 in0.0 mm 0.00 in0.0 mm
01:40 PM 78.4°F25.8°C 64.3°F17.9°C 62% 5.9 mph SE9.5 kmh SE 10.0 mph16.1 kmh 30.14 in1020.7 mb - 0.00 in0.0 mm 0.00 in0.0 mm
01:50 PM 78.0°F25.6°C 64.4°F18.0°C 63% 4.6 mph NE7.4 kmh NE 7.0 mph11.3 kmh 30.13 in1020.3 mb - 0.00 in0.0 mm 0.00 in0.0 mm
02:00 PM 78.8°F26.0°C 64.7°F18.2°C 62% 4.0 mph NE6.4 kmh NE 6.0 mph9.7 kmh 30.13 in1020.3 mb - 0.00 in0.0 mm 0.00 in0.0 mm
02:10 PM 78.0°F25.6°C 63.0°F17.2°C 60% 4.1 mph NE6.6 kmh NE 9.0 mph14.5 kmh 30.13 in1020.3 mb - 0.00 in0.0 mm 0.00 in0.0 mm
02:20 PM 77.0°F25.0°C 63.9°F17.7°C 64% 4.4 mph ENE7.1 kmh ENE 8.0 mph12.9 kmh 30.12 in1020.0 mb - 0.00 in0.0 mm 0.00 in0.0 mm
02:30 PM 77.5°F25.3°C 64.0°F17.8°C 63% 3.7 mph N6.0 kmh N 3.0 mph4.8 kmh 30.12 in1020.0 mb - 0.00 in0.0 mm 0.00 in0.0 mm
02:40 PM 77.9°F25.5°C 64.7°F18.2°C 64% 4.2 mph SE6.8 kmh SE 11.0 mph17.7 kmh 30.11 in1019.6 mb - 0.00 in0.0 mm 0.00 in0.0 mm
02:50 PM 77.5°F25.3°C 63.9°F17.7°C 63% 5.7 mph SE9.2 kmh SE 8.0 mph12.9 kmh 30.11 in1019.6 mb - 0.00 in0.0 mm 0.00 in0.0 mm
03:00 PM 78.3°F25.7°C 64.2°F17.9°C 62% 3.3 mph NNE5.3 kmh NNE 4.0 mph6.4 kmh 30.10 in1019.3 mb - 0.00 in0.0 mm 0.00 in0.0 mm
03:10 PM 78.1°F25.6°C 64.5°F18.1°C 63% 4.9 mph SE7.9 kmh SE 9.0 mph14.5 kmh 30.10 in1019.3 mb - 0.00 in0.0 mm 0.00 in0.0 mm
03:20 PM 78.7°F25.9°C 65.0°F18.3°C 63% 4.4 mph ESE7.1 kmh ESE 7.0 mph11.3 kmh 30.09 in1019.0 mb - 0.00 in0.0 mm 0.00 in0.0 mm
03:30 PM 78.5°F25.8°C 64.4°F18.0°C 62% 5.5 mph E8.9 kmh E 9.0 mph14.5 kmh 30.09 in1019.0 mb - 0.00 in0.0 mm 0.00 in0.0 mm
03:40 PM 77.7°F25.4°C 64.5°F18.1°C 64% 3.9 mph ESE6.3 kmh ESE 9.0 mph14.5 kmh 30.09 in1019.0 mb - 0.00 in0.0 mm 0.00 in0.0 mm
03:50 PM 77.7°F25.4°C 64.1°F17.8°C 63% 5.6 mph SE9.0 kmh SE 8.0 mph12.9 kmh 30.08 in1018.6 mb - 0.00 in0.0 mm 0.00 in0.0 mm
04:00 PM 78.0°F25.6°C 64.4°F18.0°C 63% 5.2 mph ESE8.4 kmh ESE 9.0 mph14.5 kmh 30.08 in1018.6 mb - 0.00 in0.0 mm 0.00 in0.0 mm
04:10 PM 77.8°F25.4°C 64.2°F17.9°C 63% 6.0 mph E9.7 kmh E 9.0 mph14.5 kmh 30.07 in1018.3 mb - 0.00 in0.0 mm 0.00 in0.0 mm
04:20 PM 77.7°F25.4°C 64.6°F18.1°C 64% 5.7 mph E9.2 kmh E 9.0 mph14.5 kmh 30.07 in1018.3 mb - 0.00 in0.0 mm 0.00 in0.0 mm
04:30 PM 77.6°F25.3°C 64.0°F17.8°C 63% 4.7 mph E7.6 kmh E 9.0 mph14.5 kmh 30.07 in1018.3 mb - 0.00 in0.0 mm 0.00 in0.0 mm
04:40 PM 77.0°F25.0°C 63.4°F17.4°C 63% 6.6 mph ESE10.6 kmh ESE 9.0 mph14.5 kmh 30.07 in1018.3 mb - 0.00 in0.0 mm 0.00 in0.0 mm
04:50 PM 77.4°F25.2°C 62.9°F17.2°C 61% 6.1 mph E9.8 kmh E 9.0 mph14.5 kmh 30.07 in1018.3 mb - 0.00 in0.0 mm 0.00 in0.0 mm
05:00 PM 76.8°F24.9°C 62.8°F17.1°C 62% 7.1 mph E11.4 kmh E 9.0 mph14.5 kmh 30.07 in1018.3 mb - 0.00 in0.0 mm 0.00 in0.0 mm
05:10 PM 76.9°F24.9°C 62.9°F17.2°C 62% 6.4 mph SSE10.3 kmh SSE 9.0 mph14.5 kmh 30.07 in1018.3 mb - 0.00 in0.0 mm 0.00 in0.0 mm
05:20 PM 76.7°F24.8°C 62.7°F17.1°C 62% 4.6 mph ESE7.4 kmh ESE 6.0 mph9.7 kmh 30.07 in1018.3 mb - 0.00 in0.0 mm 0.00 in0.0 mm
05:30 PM 77.0°F25.0°C 63.0°F17.2°C 62% 5.2 mph ESE8.4 kmh ESE 9.0 mph14.5 kmh 30.07 in1018.3 mb - 0.00 in0.0 mm 0.00 in0.0 mm
05:40 PM 76.8°F24.9°C 62.3°F16.8°C 61% 4.4 mph SE7.1 kmh SE 9.0 mph14.5 kmh 30.07 in1018.3 mb - 0.00 in0.0 mm 0.00 in0.0 mm
05:50 PM 76.4°F24.7°C 62.0°F16.7°C 61% 4.6 mph SSE7.4 kmh SSE 5.0 mph8.0 kmh 30.07 in1018.3 mb - 0.00 in0.0 mm 0.00 in0.0 mm
06:00 PM 76.3°F24.6°C 61.4°F16.3°C 60% 6.2 mph S10.0 kmh S 8.0 mph12.9 kmh 30.07 in1018.3 mb - 0.00 in0.0 mm 0.00 in0.0 mm
06:10 PM 76.3°F24.6°C 60.9°F16.1°C 59% 5.3 mph SE8.5 kmh SE 9.0 mph14.5 kmh 30.07 in1018.3 mb - 0.00 in0.0 mm 0.00 in0.0 mm
06:20 PM 76.2°F24.6°C 60.3°F15.7°C 58% 4.9 mph SE7.9 kmh SE 6.0 mph9.7 kmh 30.07 in1018.3 mb - 0.00 in0.0 mm 0.00 in0.0 mm
06:30 PM 76.1°F24.5°C 60.7°F15.9°C 59% 4.0 mph SE6.4 kmh SE 9.0 mph14.5 kmh 30.07 in1018.3 mb - 0.00 in0.0 mm 0.00 in0.0 mm
06:40 PM 75.9°F24.4°C 60.5°F15.8°C 59% 5.2 mph SE8.4 kmh SE 7.0 mph11.3 kmh 30.07 in1018.3 mb - 0.00 in0.0 mm 0.00 in0.0 mm
06:50 PM 75.6°F24.2°C 59.8°F15.4°C 58% 4.8 mph SSE7.7 kmh SSE 7.0 mph11.3 kmh 30.07 in1018.3 mb - 0.00 in0.0 mm 0.00 in0.0 mm
07:00 PM 75.4°F24.1°C 60.6°F15.9°C 60% 5.8 mph SE9.3 kmh SE 11.0 mph17.7 kmh 30.07 in1018.3 mb - 0.00 in0.0 mm 0.00 in0.0 mm
07:10 PM 75.0°F23.9°C 60.6°F15.9°C 61% 4.5 mph S7.2 kmh S 8.0 mph12.9 kmh 30.07 in1018.3 mb - 0.00 in0.0 mm 0.00 in0.0 mm
07:20 PM 74.5°F23.6°C 60.6°F15.9°C 62% 3.5 mph S5.6 kmh S 5.0 mph8.0 kmh 30.07 in1018.3 mb - 0.00 in0.0 mm 0.00 in0.0 mm
07:30 PM 74.1°F23.4°C 61.2°F16.2°C 64% 4.1 mph S6.6 kmh S 6.0 mph9.7 kmh 30.07 in1018.3 mb - 0.00 in0.0 mm 0.00 in0.0 mm
07:40 PM 73.7°F23.2°C 61.2°F16.2°C 65% 2.6 mph S4.2 kmh S 6.0 mph9.7 kmh 30.07 in1018.3 mb - 0.00 in0.0 mm 0.00 in0.0 mm
07:50 PM 73.2°F22.9°C 61.1°F16.2°C 66% 3.1 mph SSE5.0 kmh SSE 4.0 mph6.4 kmh 30.07 in1018.3 mb - 0.00 in0.0 mm 0.00 in0.0 mm
08:00 PM 72.8°F22.7°C 61.2°F16.2°C 67% 3.6 mph SE5.8 kmh SE 8.0 mph12.9 kmh 30.07 in1018.3 mb - 0.00 in0.0 mm 0.00 in0.0 mm
08:10 PM 72.6°F22.6°C 61.4°F16.3°C 68% 2.6 mph SSE4.2 kmh SSE 4.0 mph6.4 kmh 30.07 in1018.3 mb - 0.00 in0.0 mm 0.00 in0.0 mm
08:20 PM 72.2°F22.3°C 61.4°F16.3°C 69% 1.9 mph S3.1 kmh S 3.0 mph4.8 kmh 30.07 in1018.3 mb - 0.00 in0.0 mm 0.00 in0.0 mm
08:30 PM 71.8°F22.1°C 61.1°F16.2°C 69% 1.9 mph S3.1 kmh S 3.0 mph4.8 kmh 30.08 in1018.6 mb - 0.00 in0.0 mm 0.00 in0.0 mm
08:40 PM 71.5°F21.9°C 61.2°F16.2°C 70% 1.9 mph SSE3.1 kmh SSE 3.0 mph4.8 kmh 30.08 in1018.6 mb - 0.00 in0.0 mm 0.00 in0.0 mm
08:50 PM 71.3°F21.8°C 61.0°F16.1°C 70% 2.2 mph SE3.5 kmh SE 4.0 mph6.4 kmh 30.08 in1018.6 mb - 0.00 in0.0 mm 0.00 in0.0 mm
09:00 PM 71.0°F21.7°C 60.7°F15.9°C 70% 1.6 mph SE2.6 kmh SE 3.0 mph4.8 kmh 30.08 in1018.6 mb - 0.00 in0.0 mm 0.00 in0.0 mm
09:10 PM 70.7°F21.5°C 60.4°F15.8°C 70% 0.3 mph SE0.5 kmh SE 2.0 mph3.2 kmh 30.09 in1019.0 mb - 0.00 in0.0 mm 0.00 in0.0 mm
09:20 PM 70.2°F21.2°C 60.4°F15.8°C 71% 0.5 mph S0.8 kmh S -- 30.09 in1019.0 mb - 0.00 in0.0 mm 0.00 in0.0 mm
09:30 PM 69.8°F21.0°C 60.4°F15.8°C 72% 1.1 mph S1.8 kmh S 3.0 mph4.8 kmh 30.09 in1019.0 mb - 0.00 in0.0 mm 0.00 in0.0 mm
09:40 PM 69.3°F20.7°C 59.9°F15.5°C 72% 0.3 mph S0.5 kmh S -- 30.10 in1019.3 mb - 0.00 in0.0 mm 0.00 in0.0 mm
09:50 PM 69.0°F20.6°C 60.0°F15.6°C 73% 1.4 mph S2.3 kmh S 3.0 mph4.8 kmh 30.10 in1019.3 mb - 0.00 in0.0 mm 0.00 in0.0 mm
10:00 PM 68.7°F20.4°C 59.7°F15.4°C 73% 0.4 mph S0.6 kmh S 3.0 mph4.8 kmh 30.10 in1019.3 mb - 0.00 in0.0 mm 0.00 in0.0 mm
10:10 PM 68.4°F20.2°C 59.8°F15.4°C 74% 2.3 mph S3.7 kmh S 5.0 mph8.0 kmh 30.10 in1019.3 mb - 0.00 in0.0 mm 0.00 in0.0 mm
10:20 PM 68.1°F20.1°C 59.5°F15.3°C 74% 1.8 mph S2.9 kmh S 3.0 mph4.8 kmh 30.11 in1019.6 mb - 0.00 in0.0 mm 0.00 in0.0 mm
10:30 PM 67.9°F19.9°C 59.7°F15.4°C 75% 0.9 mph S1.4 kmh S 2.0 mph3.2 kmh 30.11 in1019.6 mb - 0.00 in0.0 mm 0.00 in0.0 mm
10:40 PM 67.9°F19.9°C 59.7°F15.4°C 75% 1.4 mph S2.3 kmh S 4.0 mph6.4 kmh 30.11 in1019.6 mb - 0.00 in0.0 mm 0.00 in0.0 mm
10:50 PM 67.7°F19.8°C 59.9°F15.5°C 76% 1.8 mph S2.9 kmh S 2.0 mph3.2 kmh 30.11 in1019.6 mb - 0.00 in0.0 mm 0.00 in0.0 mm
11:00 PM 67.6°F19.8°C 59.8°F15.4°C 76% 2.9 mph SSE4.7 kmh SSE 5.0 mph8.0 kmh 30.11 in1019.6 mb - 0.00 in0.0 mm 0.00 in0.0 mm
11:10 PM 67.5°F19.7°C 59.7°F15.4°C 76% 3.1 mph SSW5.0 kmh SSW 4.0 mph6.4 kmh 30.11 in1019.6 mb - 0.00 in0.0 mm 0.00 in0.0 mm
11:20 PM 67.4°F19.7°C 59.6°F15.3°C 76% Calm Calm -- 30.11 in1019.6 mb - 0.00 in0.0 mm 0.00 in0.0 mm
11:30 PM 67.5°F19.7°C 59.7°F15.4°C 76% 2.1 mph S3.4 kmh S 5.0 mph8.0 kmh 30.10 in1019.3 mb - 0.00 in0.0 mm 0.00 in0.0 mm
11:40 PM 67.4°F19.7°C 59.9°F15.5°C 77% 2.8 mph SSW4.5 kmh SSW 4.0 mph6.4 kmh 30.11 in1019.6 mb - 0.00 in0.0 mm 0.00 in0.0 mm
11:50 PM 67.6°F19.8°C 59.8°F15.4°C 76% 2.1 mph SSW3.4 kmh SSW 3.0 mph4.8 kmh 30.11 in1019.6 mb - 0.00 in0.0 mm 0.00 in0.0 mm